Time;durP1;ratioP1;P1;durP2;ratioP2;P2;SDS_P1;SDS_P2;PMS_P1;PMS_P2;Temp;Humidity;BMP_temperature;BMP_pressure;BME280_temperature;BME280_humidity;BME280_pressure;Samples;Min_cycle;Max_cycle;Signal;HPM_P1;HPM_P2
2021/01/27 00:01:09;;;;;;;13.23;7.28;;;2.40;99.90;;;;;;5095741;28;20039;-66
2021/01/27 00:03:35;;;;;;;9.07;6.38;;;2.50;99.90;;;;;;5095763;28;20024;-62
2021/01/27 00:06:00;;;;;;;9.85;6.78;;;2.40;99.90;;;;;;5095570;28;20055;-65
2021/01/27 00:08:27;;;;;;;12.30;7.07;;;2.50;99.90;;;;;;5093972;28;20031;-63
2021/01/27 00:10:53;;;;;;;14.35;8.15;;;2.50;99.90;;;;;;5095849;28;20024;-61
2021/01/27 00:13:19;;;;;;;11.95;7.57;;;2.40;99.90;;;;;;5094227;28;20036;-61
2021/01/27 00:15:45;;;;;;;11.20;7.63;;;2.40;99.90;;;;;;5095543;28;20056;-62
2021/01/27 00:18:13;;;;;;;17.73;8.27;;;2.30;99.90;;;;;;5094278;28;20042;-67
2021/01/27 00:20:39;;;;;;;11.38;7.97;;;2.30;99.90;;;;;;5094919;28;20020;-61
2021/01/27 00:23:06;;;;;;;17.73;9.57;;;2.20;99.90;;;;;;5094979;28;20062;-63
2021/01/27 00:25:35;;;;;;;26.80;11.00;;;2.30;99.90;;;;;;5093851;28;20020;-64
2021/01/27 00:28:01;;;;;;;13.32;9.43;;;2.20;99.90;;;;;;5094179;28;20050;-61
2021/01/27 00:30:30;;;;;;;13.80;9.27;;;2.30;99.90;;;;;;5093969;28;20028;-62
2021/01/27 00:32:55;;;;;;;12.05;8.88;;;2.30;99.90;;;;;;5095013;28;20031;-64
2021/01/27 00:35:28;;;;;;;13.55;8.85;;;2.30;99.90;;;;;;5093649;28;20024;-63
2021/01/27 00:37:55;;;;;;;14.40;9.13;;;2.20;99.90;;;;;;5094398;28;20051;-62
2021/01/27 00:40:21;;;;;;;12.75;9.02;;;2.10;99.90;;;;;;5080776;28;20017;-62
2021/01/27 00:42:48;;;;;;;16.42;10.10;;;2.20;99.90;;;;;;5075382;28;20036;-61
2021/01/27 00:45:15;;;;;;;16.23;9.75;;;2.20;99.90;;;;;;5075171;28;20107;-64
2021/01/27 00:47:40;;;;;;;14.32;9.85;;;2.10;99.90;;;;;;5075846;28;20424;-61
2021/01/27 00:50:07;;;;;;;15.48;10.68;;;2.10;99.90;;;;;;5074636;28;20028;-60
2021/01/27 00:52:33;;;;;;;14.27;10.32;;;2.00;99.90;;;;;;5072260;28;20090;-61
2021/01/27 00:54:59;;;;;;;15.15;10.20;;;2.00;99.90;;;;;;5073811;28;20060;-61
2021/01/27 00:57:25;;;;;;;15.27;10.50;;;2.00;99.90;;;;;;5072698;28;20020;-63
2021/01/27 00:59:51;;;;;;;16.60;10.25;;;2.00;99.90;;;;;;5074368;28;20028;-60
2021/01/27 01:02:17;;;;;;;13.25;9.38;;;2.00;99.90;;;;;;5071816;28;20024;-62
2021/01/27 01:04:42;;;;;;;17.60;10.63;;;1.90;99.90;;;;;;5073013;28;20062;-61
2021/01/27 01:07:08;;;;;;;18.17;10.63;;;1.90;99.90;;;;;;5073893;28;20059;-61
2021/01/27 01:09:34;;;;;;;18.35;10.20;;;2.00;99.90;;;;;;5073722;28;20174;-60
2021/01/27 01:12:00;;;;;;;16.40;10.15;;;2.00;99.90;;;;;;5073657;28;20083;-60
2021/01/27 01:14:26;;;;;;;15.32;9.63;;;2.00;99.90;;;;;;5071586;28;20056;-61
2021/01/27 01:16:52;;;;;;;14.18;10.00;;;2.10;99.90;;;;;;5073645;28;20385;-60
2021/01/27 01:19:18;;;;;;;14.95;9.48;;;2.10;99.90;;;;;;5072333;28;20466;-63
2021/01/27 01:21:44;;;;;;;13.95;9.50;;;2.10;99.90;;;;;;5073386;28;20078;-62
2021/01/27 01:24:10;;;;;;;16.25;9.77;;;2.10;99.90;;;;;;5073916;28;20462;-62
2021/01/27 01:26:35;;;;;;;18.95;9.95;;;2.10;99.90;;;;;;5072990;28;20086;-62
2021/01/27 01:29:01;;;;;;;18.05;10.18;;;2.00;99.90;;;;;;5074178;28;20046;-61
2021/01/27 01:31:27;;;;;;;15.95;9.05;;;2.00;99.90;;;;;;5071628;28;20028;-60
2021/01/27 01:33:53;;;;;;;18.77;9.23;;;1.90;99.90;;;;;;5073632;28;20065;-62
2021/01/27 01:36:18;;;;;;;16.20;8.98;;;1.90;99.90;;;;;;5071444;28;20513;-63
2021/01/27 01:38:45;;;;;;;14.90;10.15;;;2.00;99.90;;;;;;5073471;28;20025;-62
2021/01/27 01:41:11;;;;;;;15.43;8.55;;;2.00;99.90;;;;;;5072166;28;20119;-60
2021/01/27 01:43:39;;;;;;;13.10;9.35;;;2.00;99.90;;;;;;5072684;28;20354;-62
2021/01/27 01:46:14;;;;;;;17.95;11.05;;;2.00;99.90;;;;;;5071783;28;20056;-61
2021/01/27 01:48:54;;;;;;;12.27;8.57;;;2.10;99.90;;;;;;5071323;28;20115;-62
2021/01/27 01:51:25;;;;;;;14.90;8.88;;;2.10;99.90;;;;;;5072043;28;20485;-62
2021/01/27 01:53:55;;;;;;;13.43;9.23;;;2.10;99.90;;;;;;5073521;28;20466;-62
2021/01/27 01:56:25;;;;;;;13.82;8.90;;;2.10;99.90;;;;;;5073766;28;20058;-62
2021/01/27 01:58:55;;;;;;;13.50;9.30;;;2.00;99.90;;;;;;5074484;28;20039;-62
2021/01/27 02:01:22;;;;;;;13.88;9.10;;;2.10;99.90;;;;;;5071356;28;20048;-62
2021/01/27 02:03:50;;;;;;;13.48;8.70;;;2.10;99.90;;;;;;5072116;28;20028;-64
2021/01/27 02:06:17;;;;;;;11.43;8.60;;;1.90;99.90;;;;;;5073340;28;20024;-67
2021/01/27 02:08:53;;;;;;;12.98;8.40;;;2.10;99.90;;;;;;5071710;28;20039;-60
2021/01/27 02:11:25;;;;;;;13.55;8.25;;;2.10;99.90;;;;;;5072010;28;20024;-66
2021/01/27 02:14:12;;;;;;;13.35;8.52;;;2.10;99.90;;;;;;5072690;28;20037;-61
2021/01/27 02:16:51;;;;;;;12.63;8.05;;;2.10;99.90;;;;;;5074636;28;20122;-63
2021/01/27 02:19:35;;;;;;;15.57;8.30;;;2.00;99.90;;;;;;5092111;28;20028;-66
2021/01/27 02:22:06;;;;;;;12.57;8.75;;;1.90;99.90;;;;;;5094427;28;20115;-60
2021/01/27 02:24:53;;;;;;;12.02;7.93;;;1.90;99.90;;;;;;5093426;28;20201;-63
2021/01/27 02:27:25;;;;;;;11.90;8.93;;;2.00;99.90;;;;;;5093615;28;20111;-67
2021/01/27 02:30:02;;;;;;;14.63;8.65;;;2.20;99.90;;;;;;5092353;28;20028;-60
2021/01/27 02:32:52;;;;;;;12.77;8.00;;;2.10;99.90;;;;;;5089965;28;20047;-62
2021/01/27 02:35:33;;;;;;;11.55;7.65;;;2.20;99.90;;;;;;5091981;28;20042;-65
2021/01/27 02:38:15;;;;;;;12.23;7.18;;;2.00;99.90;;;;;;5093299;28;20052;-60
2021/01/27 02:40:54;;;;;;;13.68;7.63;;;2.00;99.90;;;;;;5092427;28;20104;-60
2021/01/27 02:43:28;;;;;;;12.93;7.70;;;1.90;99.90;;;;;;5093145;28;20123;-66
2021/01/27 02:46:17;;;;;;;12.43;7.82;;;2.00;99.90;;;;;;5093248;28;20156;-62
2021/01/27 02:48:58;;;;;;;10.77;7.63;;;2.00;99.90;;;;;;5090468;28;20024;-61
2021/01/27 02:51:30;;;;;;;12.30;7.38;;;2.00;99.90;;;;;;5090745;28;20027;-61
2021/01/27 02:54:02;;;;;;;;;;;2.10;99.90;;;;;;5091705;28;20035;-63
2021/01/27 02:56:36;;;;;;;9.68;6.72;;;2.10;99.90;;;;;;5091082;28;19914;-61
2021/01/27 02:59:12;;;;;;;11.45;6.60;;;2.00;99.90;;;;;;5091776;28;20085;-62
2021/01/27 03:01:47;;;;;;;13.32;8.10;;;1.90;99.90;;;;;;5092653;28;20086;-61
2021/01/27 03:04:20;;;;;;;15.57;7.95;;;1.90;99.90;;;;;;5091781;28;20029;-62
2021/01/27 03:06:47;;;;;;;13.82;8.25;;;1.80;99.90;;;;;;5088530;28;20032;-66
2021/01/27 03:09:20;;;;;;;11.27;6.47;;;1.80;99.90;;;;;;5073869;28;20029;-62
2021/01/27 03:11:46;;;;;;;11.00;8.02;;;1.90;99.90;;;;;;5073162;28;20056;-62
2021/01/27 03:14:12;;;;;;;11.10;6.65;;;1.80;99.90;;;;;;5073070;28;20036;-64
2021/01/27 03:16:53;;;;;;;12.68;7.32;;;1.90;99.90;;;;;;5075567;28;20060;-61
2021/01/27 03:19:23;;;;;;;14.85;7.25;;;1.90;99.90;;;;;;5075384;28;20108;-63
2021/01/27 03:21:56;;;;;;;13.27;7.28;;;2.00;99.90;;;;;;5073151;28;20474;-60
2021/01/27 03:24:23;;;;;;;13.13;7.70;;;1.90;99.90;;;;;;5071033;28;20064;-67
2021/01/27 03:27:11;;;;;;;12.45;6.70;;;1.80;99.90;;;;;;5073323;28;20028;-60
2021/01/27 03:29:44;;;;;;;12.43;7.63;;;1.80;99.90;;;;;;5071959;28;20343;-62
2021/01/27 03:32:24;;;;;;;13.27;6.80;;;1.80;99.90;;;;;;5072879;28;20053;-62
2021/01/27 03:35:02;;;;;;;12.20;6.75;;;1.80;99.90;;;;;;5080120;28;20031;-61
2021/01/27 03:37:34;;;;;;;11.80;6.65;;;1.90;99.90;;;;;;5092136;28;20035;-60
2021/01/27 03:40:05;;;;;;;10.40;7.05;;;1.90;99.90;;;;;;5091922;28;20031;-60
2021/01/27 03:42:44;;;;;;;9.37;6.10;;;1.80;99.90;;;;;;5091816;28;20032;-68
2021/01/27 03:45:12;;;;;;;18.65;8.55;;;1.90;99.90;;;;;;5091285;28;20036;-61
2021/01/27 03:47:54;;;;;;;8.43;5.22;;;1.90;99.90;;;;;;5090396;28;20571;-64
2021/01/27 03:50:24;;;;;;;11.77;6.85;;;1.90;99.90;;;;;;5094699;28;20132;-59
2021/01/27 03:52:50;;;;;;;11.43;6.35;;;1.90;99.90;;;;;;5094880;28;20031;-60
2021/01/27 03:55:19;;;;;;;8.10;5.35;;;1.90;99.90;;;;;;5095610;28;20123;-62
2021/01/27 03:57:57;;;;;;;9.57;5.30;;;1.90;99.90;;;;;;5097834;28;20059;-63
2021/01/27 04:00:28;;;;;;;9.77;5.22;;;1.90;99.90;;;;;;5096134;28;20125;-67
2021/01/27 04:03:05;;;;;;;14.43;6.95;;;2.00;99.90;;;;;;5097404;28;20024;-60
2021/01/27 04:05:30;;;;;;;9.68;5.07;;;1.90;99.90;;;;;;5096079;28;20024;-61
2021/01/27 04:07:56;;;;;;;13.15;5.80;;;1.90;99.90;;;;;;5095748;28;20024;-61
2021/01/27 04:10:22;;;;;;;7.57;4.95;;;1.90;99.90;;;;;;5096238;28;20089;-62
2021/01/27 04:12:48;;;;;;;8.50;5.50;;;1.80;99.90;;;;;;5095142;28;20024;-59
2021/01/27 04:15:14;;;;;;;11.10;5.60;;;1.80;99.90;;;;;;5096230;28;20055;-61
2021/01/27 04:17:39;;;;;;;9.65;6.15;;;1.90;99.90;;;;;;5093666;28;20020;-67
2021/01/27 04:20:06;;;;;;;11.50;5.80;;;1.90;99.90;;;;;;5094459;28;20024;-65
2021/01/27 04:22:31;;;;;;;10.23;5.57;;;1.90;99.90;;;;;;5096527;28;20103;-61
2021/01/27 04:24:57;;;;;;;6.93;4.85;;;1.90;99.90;;;;;;5097319;28;20059;-60
2021/01/27 04:27:25;;;;;;;13.95;5.50;;;2.00;99.90;;;;;;5095912;28;20111;-61
2021/01/27 04:29:50;;;;;;;9.45;5.32;;;1.90;99.90;;;;;;5096548;28;20019;-60
2021/01/27 04:32:16;;;;;;;8.18;5.32;;;1.90;99.90;;;;;;5094520;28;20066;-62
2021/01/27 04:34:42;;;;;;;8.73;5.13;;;2.00;99.90;;;;;;5093149;28;20036;-60
2021/01/27 04:37:08;;;;;;;11.55;5.43;;;2.00;99.90;;;;;;5095228;28;20043;-61
2021/01/27 04:39:34;;;;;;;10.13;5.68;;;2.00;99.90;;;;;;5092917;28;20024;-62
2021/01/27 04:42:00;;;;;;;9.00;5.00;;;1.90;99.90;;;;;;5095151;28;20530;-61
2021/01/27 04:44:26;;;;;;;7.88;5.15;;;2.00;99.90;;;;;;5095285;28;20032;-66
2021/01/27 04:47:13;;;;;;;10.57;5.88;;;2.00;99.90;;;;;;5093943;28;20040;-61
2021/01/27 04:49:44;;;;;;;16.13;5.60;;;2.00;99.90;;;;;;5094672;28;20032;-60
2021/01/27 04:52:32;;;;;;;14.75;5.90;;;2.00;99.90;;;;;;5094379;28;20020;-61
2021/01/27 04:55:48;;;;;;;14.57;6.18;;;2.00;99.90;;;;;;5093885;28;20062;-63
2021/01/27 04:58:32;;;;;;;7.45;5.63;;;1.90;99.90;;;;;;5048747;28;20097;-60
2021/01/27 05:01:51;;;;;;;15.15;7.30;;;2.10;99.90;;;;;;5092940;28;20035;-61
2021/01/27 05:04:35;;;;;;;12.20;6.20;;;2.00;99.90;;;;;;5011752;28;20084;-61
2021/01/27 05:07:06;;;;;;;9.05;5.13;;;2.20;99.90;;;;;;5095299;28;20032;-60
2021/01/27 05:09:55;;;;;;;11.25;5.05;;;2.20;99.90;;;;;;5076504;28;20032;-65
2021/01/27 05:12:24;;;;;;;10.05;5.68;;;2.20;99.90;;;;;;5093468;28;20036;-60
2021/01/27 05:14:50;;;;;;;10.27;5.60;;;2.20;99.90;;;;;;5094460;28;20105;-61
2021/01/27 05:17:19;;;;;;;11.82;5.53;;;2.20;99.90;;;;;;5095953;28;20056;-60
2021/01/27 05:19:46;;;;;;;8.73;5.38;;;2.20;99.90;;;;;;5094909;28;20050;-63
2021/01/27 05:22:14;;;;;;;8.25;4.90;;;2.20;99.90;;;;;;5094364;28;20149;-62
2021/01/27 05:24:41;;;;;;;11.07;5.20;;;2.20;99.90;;;;;;5093783;28;20115;-65
2021/01/27 05:27:33;;;;;;;11.35;6.50;;;2.20;99.90;;;;;;5094551;28;20077;-61
2021/01/27 05:30:07;;;;;;;11.57;5.43;;;2.10;99.90;;;;;;5093444;28;20024;-62
2021/01/27 05:32:55;;;;;;;12.73;6.78;;;2.20;99.90;;;;;;5094177;28;20116;-63
2021/01/27 05:35:39;;;;;;;11.60;6.50;;;2.00;99.90;;;;;;5095503;28;20105;-62
2021/01/27 05:38:25;;;;;;;12.90;6.25;;;2.00;99.90;;;;;;5094547;28;20030;-61
2021/01/27 05:41:02;;;;;;;13.65;6.00;;;2.00;99.90;;;;;;5094678;28;20028;-63
2021/01/27 05:43:28;;;;;;;14.93;5.85;;;1.90;99.90;;;;;;5097486;28;20473;-67
2021/01/27 05:46:12;;;;;;;7.22;5.07;;;2.10;99.90;;;;;;5096112;28;20055;-63
2021/01/27 05:48:50;;;;;;;12.13;6.57;;;2.10;99.90;;;;;;5094535;28;20054;-60
2021/01/27 05:51:33;;;;;;;10.32;5.80;;;2.20;99.90;;;;;;5093394;28;20024;-63
2021/01/27 05:54:00;;;;;;;8.57;4.90;;;2.30;99.90;;;;;;5095915;28;20032;-61
2021/01/27 05:56:28;;;;;;;9.70;5.93;;;2.10;99.90;;;;;;5094394;28;20024;-61
2021/01/27 05:58:54;;;;;;;7.50;5.10;;;2.20;99.90;;;;;;5093807;28;20025;-64
2021/01/27 06:01:31;;;;;;;10.98;6.10;;;2.30;99.90;;;;;;5093134;28;20458;-61
2021/01/27 06:04:11;;;;;;;8.70;4.90;;;2.30;99.90;;;;;;5094922;28;20028;-62
2021/01/27 06:06:46;;;;;;;6.97;4.65;;;2.30;99.90;;;;;;5092179;28;20054;-62
2021/01/27 06:09:13;;;;;;;7.60;5.30;;;2.30;99.90;;;;;;5094437;28;20028;-62
2021/01/27 06:11:39;;;;;;;12.32;5.90;;;2.30;99.90;;;;;;5092797;28;20040;-61
2021/01/27 06:14:19;;;;;;;8.93;5.00;;;2.30;99.90;;;;;;5092920;28;20085;-62
2021/01/27 06:16:48;;;;;;;8.75;5.75;;;2.20;99.90;;;;;;5092383;28;20099;-61
2021/01/27 06:19:15;;;;;;;9.95;6.18;;;2.30;99.90;;;;;;5093533;28;20017;-61
2021/01/27 06:22:06;;;;;;;10.85;5.75;;;2.20;99.90;;;;;;5090331;28;20028;-61
2021/01/27 06:24:40;;;;;;;8.98;5.28;;;2.10;99.90;;;;;;5091835;28;20032;-68
2021/01/27 06:27:32;;;;;;;11.18;5.30;;;2.00;99.90;;;;;;5092337;28;20106;-60
2021/01/27 06:30:16;;;;;;;10.25;5.20;;;2.00;99.90;;;;;;5080315;28;20043;-61
2021/01/27 06:32:48;;;;;;;10.23;5.65;;;1.90;99.90;;;;;;5093847;28;20393;-63
2021/01/27 06:35:46;;;;;;;9.20;5.57;;;1.90;99.90;;;;;;5094233;28;20107;-62
2021/01/27 06:38:48;;;;;;;11.73;5.72;;;1.70;99.90;;;;;;5059327;28;20474;-62
2021/01/27 06:41:41;;;;;;;9.13;5.80;;;1.80;99.90;;;;;;5072350;28;20362;-62
2021/01/27 06:44:26;;;;;;;7.28;5.25;;;1.90;99.90;;;;;;5067432;28;20043;-62
2021/01/27 06:47:28;;;;;;;10.07;5.40;;;2.00;99.90;;;;;;5070855;28;20500;-62
2021/01/27 06:50:19;;;;;;;9.52;5.38;;;1.90;99.90;;;;;;5070752;28;20021;-64
2021/01/27 06:53:26;;;;;;;10.00;6.47;;;2.00;99.90;;;;;;5049344;28;20095;-61
2021/01/27 06:56:15;;;;;;;8.75;4.85;;;1.90;99.90;;;;;;5022192;28;20237;-60
2021/01/27 06:59:25;;;;;;;9.70;5.72;;;1.90;99.90;;;;;;5032771;28;20029;-61
2021/01/27 07:02:12;;;;;;;9.52;5.93;;;1.80;99.90;;;;;;5036361;28;20454;-62
2021/01/27 07:04:49;;;;;;;15.60;6.60;;;1.90;99.90;;;;;;5052696;28;20398;-62
2021/01/27 07:07:39;;;;;;;10.50;6.10;;;1.80;99.90;;;;;;5070027;28;20103;-61
2021/01/27 07:10:25;;;;;;;7.25;5.50;;;1.90;99.90;;;;;;5070155;28;20029;-61
2021/01/27 07:13:11;;;;;;;19.88;6.60;;;2.00;99.90;;;;;;5053062;28;20045;-61
2021/01/27 07:16:00;;;;;;;15.00;6.70;;;2.00;99.90;;;;;;5069358;28;20049;-67
2021/01/27 07:18:48;;;;;;;14.30;6.05;;;2.00;99.90;;;;;;5054691;28;20111;-61
2021/01/27 07:21:27;;;;;;;9.63;6.72;;;1.90;99.90;;;;;;5033692;28;20029;-62
2021/01/27 07:24:14;;;;;;;14.05;7.07;;;1.90;99.90;;;;;;5064025;28;20045;-61
2021/01/27 07:26:54;;;;;;;16.90;6.72;;;1.90;99.90;;;;;;5072871;28;20078;-63
2021/01/27 07:29:48;;;;;;;13.88;6.13;;;1.90;99.90;;;;;;5074154;28;20024;-62
2021/01/27 07:32:31;;;;;;;16.95;7.00;;;2.10;99.90;;;;;;5072561;28;20085;-62
2021/01/27 07:35:13;;;;;;;10.13;6.90;;;2.10;99.90;;;;;;5093815;28;20039;-62
2021/01/27 07:37:45;;;;;;;15.70;6.32;;;1.90;99.90;;;;;;5095971;28;20039;-65
2021/01/27 07:40:16;;;;;;;9.18;5.30;;;1.90;99.90;;;;;;5095043;28;20062;-63
2021/01/27 07:43:12;;;;;;;16.20;9.05;;;1.80;99.90;;;;;;5095114;28;20032;-62
2021/01/27 07:45:42;;;;;;;13.00;6.65;;;2.00;99.90;;;;;;5094234;28;20055;-62
2021/01/27 07:48:29;;;;;;;11.05;7.28;;;2.00;99.90;;;;;;5095862;28;20045;-62
2021/01/27 07:50:58;;;;;;;10.00;6.57;;;1.80;99.90;;;;;;5093775;28;20115;-62
2021/01/27 07:53:31;;;;;;;12.40;6.70;;;1.70;99.90;;;;;;5094962;28;20021;-62
2021/01/27 07:56:20;;;;;;;11.07;6.90;;;1.80;99.90;;;;;;5093571;28;20027;-61
2021/01/27 07:58:58;;;;;;;11.80;7.03;;;1.90;99.90;;;;;;5079279;28;20025;-62
2021/01/27 08:01:41;;;;;;;11.43;6.88;;;1.90;99.90;;;;;;5073861;28;20025;-61
2021/01/27 08:04:28;;;;;;;13.77;7.40;;;1.90;99.90;;;;;;5073640;28;20056;-61
2021/01/27 08:06:57;;;;;;;13.48;7.00;;;2.00;99.90;;;;;;5074611;28;20125;-60
2021/01/27 08:09:35;;;;;;;11.88;7.03;;;2.20;99.90;;;;;;5076223;28;20029;-63
2021/01/27 08:12:15;;;;;;;9.68;5.85;;;2.00;99.90;;;;;;5073358;28;20143;-62
2021/01/27 08:14:58;;;;;;;14.15;7.93;;;2.00;99.90;;;;;;5072876;28;20050;-63
2021/01/27 08:17:55;;;;;;;14.40;7.55;;;2.00;99.90;;;;;;5074163;28;20046;-60
2021/01/27 08:20:36;;;;;;;12.13;7.10;;;2.00;99.90;;;;;;5073770;28;20024;-63
2021/01/27 08:23:27;;;;;;;9.68;7.10;;;1.90;99.90;;;;;;5073550;28;20033;-61
2021/01/27 08:26:01;;;;;;;10.25;6.65;;;2.00;99.90;;;;;;5071267;28;20177;-62
2021/01/27 08:28:33;;;;;;;17.88;7.28;;;1.90;99.90;;;;;;5073476;28;20562;-61
2021/01/27 08:31:12;;;;;;;12.30;7.75;;;2.00;99.90;;;;;;5072364;28;20603;-60
2021/01/27 08:33:46;;;;;;;11.90;6.75;;;2.00;99.90;;;;;;5074657;28;20413;-64
2021/01/27 08:36:40;;;;;;;12.95;6.65;;;2.00;99.90;;;;;;5072769;28;20033;-60
2021/01/27 08:39:11;;;;;;;12.80;7.53;;;2.00;99.90;;;;;;5074147;28;20079;-63
2021/01/27 08:42:01;;;;;;;9.00;6.00;;;3.60;99.90;;;;;;5073478;28;20032;-62
2021/01/27 08:44:34;;;;;;;10.20;6.40;;;4.90;99.90;;;;;;5073266;28;20044;-62
2021/01/27 08:47:27;;;;;;;9.32;5.95;;;3.50;99.90;;;;;;5072309;28;20233;-62
2021/01/27 08:49:58;;;;;;;9.73;5.63;;;3.00;99.90;;;;;;5072270;28;20424;-67
2021/01/27 08:52:28;;;;;;;9.93;5.82;;;2.50;99.90;;;;;;5072510;28;20020;-62
2021/01/27 08:54:55;;;;;;;12.60;6.82;;;2.40;99.90;;;;;;5076845;28;20040;-63
2021/01/27 08:57:28;;;;;;;9.65;5.68;;;2.10;99.90;;;;;;5090177;28;20114;-62
2021/01/27 09:00:03;;;;;;;12.80;5.90;;;2.10;99.90;;;;;;5089613;28;20036;-65
2021/01/27 09:02:43;;;;;;;9.65;5.70;;;2.00;99.90;;;;;;5091333;28;20107;-65
2021/01/27 09:05:19;;;;;;;9.32;6.00;;;2.00;99.90;;;;;;5094725;28;20402;-62
2021/01/27 09:07:56;;;;;;;12.70;7.53;;;2.00;99.90;;;;;;5090778;28;20599;-67
2021/01/27 09:10:35;;;;;;;13.23;6.07;;;2.00;99.90;;;;;;5087911;28;20023;-62
2021/01/27 09:13:20;;;;;;;9.18;5.18;;;2.00;99.90;;;;;;5092220;28;20480;-62
2021/01/27 09:15:52;;;;;;;11.20;5.80;;;2.00;99.90;;;;;;5088946;28;20050;-63
2021/01/27 09:18:17;;;;;;;8.48;5.32;;;2.20;99.90;;;;;;5091546;28;20024;-62
2021/01/27 09:20:43;;;;;;;11.65;6.05;;;2.20;99.90;;;;;;5092607;28;20026;-62
2021/01/27 09:23:10;;;;;;;8.85;5.30;;;2.10;99.90;;;;;;5067301;28;20024;-62
2021/01/27 09:25:44;;;;;;;9.77;5.65;;;2.30;99.90;;;;;;5078115;28;20071;-63
2021/01/27 09:28:11;;;;;;;10.07;6.35;;;2.10;99.90;;;;;;5077223;28;20111;-62
2021/01/27 09:30:38;;;;;;;9.07;6.38;;;2.10;99.90;;;;;;5061870;28;20021;-62
2021/01/27 09:33:12;;;;;;;12.63;5.80;;;2.10;99.90;;;;;;5061953;28;20048;-62
2021/01/27 09:35:40;;;;;;;8.50;6.03;;;2.10;99.90;;;;;;5077416;28;20160;-63
2021/01/27 09:38:26;;;;;;;10.40;6.13;;;2.10;99.90;;;;;;5078135;28;20024;-62
2021/01/27 09:40:59;;;;;;;8.57;6.45;;;3.80;99.90;;;;;;5054180;28;20028;-63
2021/01/27 09:43:26;;;;;;;11.35;7.00;;;3.20;99.90;;;;;;5071046;28;20044;-61
2021/01/27 09:45:52;;;;;;;14.35;6.32;;;2.50;99.90;;;;;;5053058;28;20033;-61
2021/01/27 09:48:22;;;;;;;10.85;7.68;;;2.20;99.90;;;;;;5070496;28;20071;-62
2021/01/27 09:51:00;;;;;;;12.90;6.88;;;2.00;99.90;;;;;;5070604;28;20035;-63
2021/01/27 09:53:37;;;;;;;12.43;8.02;;;2.00;99.90;;;;;;5075252;28;20103;-63
2021/01/27 09:56:04;;;;;;;11.40;7.65;;;2.00;99.90;;;;;;5091502;28;20397;-61
2021/01/27 09:58:31;;;;;;;9.75;7.20;;;1.90;99.90;;;;;;5092126;28;20020;-63
2021/01/27 10:01:03;;;;;;;16.00;7.63;;;1.80;99.90;;;;;;5091103;28;20091;-62
2021/01/27 10:03:39;;;;;;;8.40;6.45;;;1.80;99.90;;;;;;5093858;28;20571;-64
2021/01/27 10:06:31;;;;;;;12.38;6.63;;;1.90;99.90;;;;;;5091309;28;20035;-62
2021/01/27 10:08:58;;;;;;;;;;;1.90;99.90;;;;;;5090726;28;20123;-65
2021/01/27 10:11:31;;;;;;;8.93;6.38;;;1.90;99.90;;;;;;5092947;28;19908;-64
2021/01/27 10:14:02;;;;;;;10.40;6.35;;;1.90;99.90;;;;;;5092956;28;20089;-62
2021/01/27 10:16:33;;;;;;;8.30;6.07;;;1.90;99.90;;;;;;5090656;28;20060;-60
2021/01/27 10:19:04;;;;;;;9.82;6.00;;;1.90;99.90;;;;;;5093809;28;20078;-61
2021/01/27 10:21:30;;;;;;;7.18;5.55;;;1.90;99.90;;;;;;5092411;28;20085;-60
2021/01/27 10:23:55;;;;;;;8.88;5.78;;;1.90;99.90;;;;;;5091386;28;20059;-59
2021/01/27 10:26:22;;;;;;;9.07;5.90;;;2.00;99.90;;;;;;5075763;28;20066;-68
2021/01/27 10:29:08;;;;;;;10.93;6.05;;;2.00;99.90;;;;;;5093193;28;20070;-69
2021/01/27 10:31:36;;;;;;;7.00;5.18;;;2.00;99.90;;;;;;5092475;28;20081;-65
2021/01/27 10:34:02;;;;;;;9.00;4.85;;;2.00;99.90;;;;;;5093817;28;20028;-65
2021/01/27 10:36:40;;;;;;;9.25;5.05;;;2.00;99.90;;;;;;5085534;28;20028;-62
2021/01/27 10:39:27;;;;;;;7.43;4.35;;;2.00;99.90;;;;;;5071646;28;20036;-68
2021/01/27 10:42:14;;;;;;;5.32;3.95;;;2.10;99.90;;;;;;5073596;28;20401;-62
2021/01/27 10:44:42;;;;;;;8.45;4.18;;;2.10;99.90;;;;;;5072393;28;20474;-65
2021/01/27 10:47:07;;;;;;;10.73;4.97;;;2.00;99.90;;;;;;5071720;28;20099;-62
2021/01/27 10:49:55;;;;;;;9.07;5.30;;;2.10;99.90;;;;;;5072014;28;20356;-63
2021/01/27 10:52:26;;;;;;;9.05;5.45;;;2.20;99.90;;;;;;5072373;28;20021;-71
2021/01/27 10:54:59;;;;;;;7.87;5.13;;;2.10;99.90;;;;;;5071443;28;20071;-64
2021/01/27 10:57:25;;;;;;;6.57;4.93;;;2.00;99.90;;;;;;5072097;28;20059;-71
2021/01/27 10:59:52;;;;;;;7.00;4.95;;;2.00;99.90;;;;;;5076713;28;20058;-64
2021/01/27 11:02:19;;;;;;;8.65;6.38;;;2.10;99.90;;;;;;5090655;28;20024;-62
2021/01/27 11:04:45;;;;;;;6.72;5.38;;;1.90;99.90;;;;;;5095061;28;20119;-65
2021/01/27 11:07:12;;;;;;;6.25;5.43;;;2.00;99.90;;;;;;5094635;28;20167;-62
2021/01/27 11:09:38;;;;;;;7.35;5.65;;;2.00;99.90;;;;;;5097068;28;20027;-62
2021/01/27 11:12:04;;;;;;;5.95;5.22;;;2.00;99.90;;;;;;5095237;28;20107;-62
2021/01/27 11:14:30;;;;;;;9.40;5.90;;;2.10;99.90;;;;;;5096261;28;20143;-62
2021/01/27 11:16:56;;;;;;;9.35;6.88;;;2.10;99.90;;;;;;5084870;28;20477;-63
2021/01/27 11:19:22;;;;;;;8.60;6.43;;;2.10;99.90;;;;;;5075212;28;20031;-62
2021/01/27 11:21:48;;;;;;;9.23;6.90;;;1.90;99.90;;;;;;5058779;28;20025;-67
2021/01/27 11:24:14;;;;;;;11.90;7.13;;;1.90;99.90;;;;;;5075614;28;20494;-62
2021/01/27 11:26:39;;;;;;;12.68;7.43;;;2.00;99.90;;;;;;5077905;28;20431;-62
2021/01/27 11:29:05;;;;;;;11.05;6.75;;;2.00;99.90;;;;;;5076463;28;20069;-62
2021/01/27 11:31:32;;;;;;;8.82;6.35;;;2.00;99.90;;;;;;5079162;28;20474;-62
2021/01/27 11:33:58;;;;;;;9.93;7.15;;;1.90;99.90;;;;;;5076684;28;20024;-67
2021/01/27 11:36:25;;;;;;;9.95;7.20;;;1.90;99.90;;;;;;5076949;28;20037;-62
2021/01/27 11:38:52;;;;;;;9.50;6.90;;;1.90;99.90;;;;;;5075472;28;20489;-68
2021/01/27 11:41:19;;;;;;;10.48;7.05;;;2.00;99.90;;;;;;5075777;28;20060;-66
2021/01/27 11:43:45;;;;;;;10.15;7.28;;;1.90;99.90;;;;;;5084749;28;20039;-65
2021/01/27 11:46:13;;;;;;;11.93;8.32;;;1.80;99.90;;;;;;5098368;28;20285;-63
2021/01/27 11:48:39;;;;;;;10.30;7.35;;;1.80;99.90;;;;;;5096655;28;20106;-62
2021/01/27 11:51:06;;;;;;;10.10;7.75;;;1.90;99.90;;;;;;5095941;28;20107;-62
2021/01/27 11:53:33;;;;;;;10.63;7.95;;;1.90;99.90;;;;;;5095184;28;20024;-63
2021/01/27 11:55:59;;;;;;;10.82;7.63;;;2.10;99.90;;;;;;5094520;28;20020;-65
2021/01/27 11:58:25;;;;;;;9.15;7.20;;;1.90;99.90;;;;;;5094400;28;20186;-61
2021/01/27 12:00:53;;;;;;;13.85;8.20;;;1.90;99.90;;;;;;5094772;28;20036;-68
2021/01/27 12:03:19;;;;;;;16.50;7.85;;;2.00;99.90;;;;;;5096368;28;20466;-63
2021/01/27 12:05:45;;;;;;;9.07;7.20;;;1.90;99.90;;;;;;5083373;28;20070;-60
2021/01/27 12:08:11;;;;;;;10.35;7.55;;;2.00;99.90;;;;;;5075473;28;20025;-62
2021/01/27 12:10:37;;;;;;;10.25;7.70;;;2.00;99.90;;;;;;5074998;28;20458;-62
2021/01/27 12:13:04;;;;;;;8.63;7.35;;;2.00;99.90;;;;;;5074639;28;20036;-63
2021/01/27 12:15:30;;;;;;;8.52;7.63;;;2.00;99.90;;;;;;5074861;28;20101;-61
2021/01/27 12:17:57;;;;;;;12.75;8.90;;;2.00;99.90;;;;;;5073809;28;20024;-63
2021/01/27 12:20:24;;;;;;;10.43;8.10;;;2.10;99.90;;;;;;5073748;28;20028;-61
2021/01/27 12:22:50;;;;;;;10.95;8.52;;;2.00;99.90;;;;;;5075626;28;20129;-67
2021/01/27 12:25:16;;;;;;;10.02;8.25;;;2.00;99.90;;;;;;5075241;28;20024;-63
2021/01/27 12:27:42;;;;;;;10.98;7.45;;;2.10;99.90;;;;;;5077373;28;20108;-63
2021/01/27 12:30:10;;;;;;;12.40;8.48;;;2.10;99.90;;;;;;5076636;28;20028;-63
2021/01/27 12:32:36;;;;;;;9.43;7.40;;;2.20;99.90;;;;;;5076652;28;20033;-64
2021/01/27 12:35:04;;;;;;;11.10;7.75;;;2.10;99.90;;;;;;5095478;28;20032;-63
2021/01/27 12:37:30;;;;;;;10.15;8.25;;;2.20;99.90;;;;;;5095003;28;20028;-63
2021/01/27 12:39:56;;;;;;;11.13;7.05;;;2.00;99.90;;;;;;5089018;28;20071;-69
2021/01/27 12:42:22;;;;;;;10.38;7.47;;;2.00;99.90;;;;;;5075806;28;20048;-62
2021/01/27 12:44:47;;;;;;;11.23;7.85;;;2.10;99.90;;;;;;5075924;28;20066;-61
2021/01/27 12:47:13;;;;;;;10.35;7.57;;;2.20;99.90;;;;;;5076222;28;20028;-63
2021/01/27 12:49:40;;;;;;;10.68;8.25;;;2.10;99.90;;;;;;5091828;28;20028;-64
2021/01/27 12:52:07;;;;;;;15.50;7.35;;;1.90;99.90;;;;;;5090932;28;20046;-63
2021/01/27 12:54:33;;;;;;;14.55;8.90;;;2.10;99.90;;;;;;5076231;28;20521;-62
2021/01/27 12:56:59;;;;;;;10.55;8.10;;;2.10;99.90;;;;;;5074029;28;20127;-65
2021/01/27 12:59:25;;;;;;;9.98;7.85;;;2.30;99.90;;;;;;5075727;28;20028;-68
2021/01/27 13:01:51;;;;;;;10.77;8.95;;;2.20;99.90;;;;;;5086385;28;20024;-63
2021/01/27 13:04:17;;;;;;;10.05;7.78;;;2.20;99.90;;;;;;5093730;28;20039;-62
2021/01/27 13:06:43;;;;;;;11.43;8.43;;;2.20;99.90;;;;;;5093777;28;20038;-63
2021/01/27 13:09:09;;;;;;;9.60;8.23;;;2.20;99.90;;;;;;5093804;28;20481;-63
2021/01/27 13:11:35;;;;;;;10.75;8.55;;;2.30;99.90;;;;;;5091482;28;20027;-62
2021/01/27 13:14:01;;;;;;;11.88;8.25;;;2.30;99.90;;;;;;5093922;28;20039;-63
2021/01/27 13:16:27;;;;;;;20.83;8.40;;;2.20;99.90;;;;;;5092858;28;20055;-62
2021/01/27 13:18:54;;;;;;;12.07;8.20;;;2.30;99.90;;;;;;5094746;28;20482;-67
2021/01/27 13:21:20;;;;;;;10.43;7.78;;;2.20;99.90;;;;;;5076043;28;20032;-67